Time;durP1;ratioP1;P1;durP2;ratioP2;P2;SDS_P1;SDS_P2;PMS_P1;PMS_P2;Temp;Humidity;BMP_temperature;BMP_pressure;BME280_temperature;BME280_humidity;BME280_pressure;Samples;Min_cycle;Max_cycle;Signal;HPM_P1;HPM_P2
2021/06/21 00:00:20;;;;;;;5.15;2.50;;;19.50;94.60;;;;;;5126763;27;20279;-69
2021/06/21 00:02:47;;;;;;;6.05;2.67;;;19.40;94.50;;;;;;5123668;27;20227;-70
2021/06/21 00:05:16;;;;;;;4.88;2.60;;;19.40;94.50;;;;;;5125415;28;20228;-70
2021/06/21 00:07:43;;;;;;;7.85;2.90;;;19.30;94.40;;;;;;5130248;28;20207;-72
2021/06/21 00:10:12;;;;;;;4.25;2.45;;;19.30;94.40;;;;;;5126954;27;20200;-73
2021/06/21 00:12:41;;;;;;;5.80;2.60;;;19.40;94.50;;;;;;5128527;27;20604;-69
2021/06/21 00:15:09;;;;;;;8.82;2.65;;;19.30;94.50;;;;;;5128560;27;20206;-70
2021/06/21 00:17:36;;;;;;;5.07;2.22;;;19.30;94.50;;;;;;5128094;27;20208;-70
2021/06/21 00:20:04;;;;;;;7.10;2.70;;;19.30;94.50;;;;;;5127422;27;20220;-68
2021/06/21 00:22:32;;;;;;;3.90;2.70;;;19.30;94.40;;;;;;5128447;27;20279;-71
2021/06/21 00:24:59;;;;;;;6.70;2.60;;;19.30;94.40;;;;;;5122274;28;20220;-69
2021/06/21 00:27:26;;;;;;;5.75;2.60;;;19.20;94.40;;;;;;5127705;27;20552;-69
2021/06/21 00:29:53;;;;;;;7.82;2.60;;;19.20;94.40;;;;;;5124151;27;20204;-70
2021/06/21 00:32:20;;;;;;;7.05;2.78;;;19.20;94.60;;;;;;5127375;28;20235;-68
2021/06/21 00:34:47;;;;;;;11.32;2.40;;;19.20;94.70;;;;;;5127725;27;20192;-72
2021/06/21 00:37:14;;;;;;;5.82;2.60;;;19.10;94.60;;;;;;5130245;27;20193;-71
2021/06/21 00:39:42;;;;;;;6.15;2.35;;;19.10;94.50;;;;;;5127661;27;20563;-72
2021/06/21 00:42:09;;;;;;;6.05;2.90;;;19.10;94.40;;;;;;5127940;27;20656;-72
2021/06/21 00:44:36;;;;;;;9.75;2.45;;;19.10;94.40;;;;;;5126941;27;20223;-71
2021/06/21 00:47:03;;;;;;;5.28;2.63;;;19.10;94.40;;;;;;5122800;27;20201;-71
2021/06/21 00:49:30;;;;;;;7.00;2.45;;;19.00;94.30;;;;;;5126907;27;20193;-70
2021/06/21 00:51:57;;;;;;;6.28;2.42;;;19.00;94.30;;;;;;5134125;27;20204;-71
2021/06/21 00:54:25;;;;;;;4.95;2.45;;;19.00;94.30;;;;;;5131314;27;20623;-71
2021/06/21 00:56:53;;;;;;;7.35;2.47;;;19.00;94.40;;;;;;5133917;27;20211;-70
2021/06/21 00:59:20;;;;;;;7.68;3.15;;;19.00;94.40;;;;;;5130590;27;20200;-74
2021/06/21 01:01:48;;;;;;;7.03;2.92;;;18.90;94.40;;;;;;5129743;27;20220;-72
2021/06/21 01:04:15;;;;;;;9.25;2.80;;;18.90;94.50;;;;;;5131145;27;20212;-70
2021/06/21 01:06:41;;;;;;;6.78;3.40;;;18.90;94.40;;;;;;5133708;27;20573;-71
2021/06/21 01:09:08;;;;;;;5.22;3.13;;;18.80;94.50;;;;;;5130212;27;20204;-70
2021/06/21 01:11:49;;;;;;;7.32;3.20;;;18.80;94.50;;;;;;5131308;27;20207;-71
2021/06/21 01:14:22;;;;;;;4.88;2.97;;;18.80;94.50;;;;;;5130873;27;20721;-71
2021/06/21 01:16:55;;;;;;;7.50;3.10;;;18.70;94.50;;;;;;5133259;27;20204;-71
2021/06/21 01:19:41;;;;;;;7.55;3.17;;;18.70;94.60;;;;;;5130119;27;20193;-71
2021/06/21 01:22:49;;;;;;;5.75;3.13;;;18.70;94.60;;;;;;5130578;27;20208;-72
2021/06/21 01:25:27;;;;;;;8.10;3.63;;;18.70;94.60;;;;;;5128779;27;20208;-71
2021/06/21 01:27:58;;;;;;;7.93;3.50;;;18.70;94.70;;;;;;5132959;27;20208;-70
2021/06/21 01:30:37;;;;;;;5.40;3.47;;;18.60;94.70;;;;;;5128336;27;20204;-71
2021/06/21 01:33:07;;;;;;;8.15;3.50;;;18.60;94.70;;;;;;5131023;27;20211;-71
2021/06/21 01:35:36;;;;;;;6.00;3.30;;;18.60;94.80;;;;;;5130744;27;20241;-71
2021/06/21 01:38:06;;;;;;;8.52;3.40;;;18.60;94.80;;;;;;5129804;27;20212;-71
2021/06/21 01:40:43;;;;;;;8.15;3.35;;;18.60;94.80;;;;;;5130257;27;20664;-71
2021/06/21 01:43:14;;;;;;;9.95;3.75;;;18.50;94.90;;;;;;5124523;27;20212;-74
2021/06/21 01:45:42;;;;;;;11.07;3.65;;;18.60;95.00;;;;;;5131289;27;20265;-70
2021/06/21 01:48:12;;;;;;;8.07;3.10;;;18.60;94.90;;;;;;5130647;27;20668;-70
2021/06/21 01:50:40;;;;;;;10.32;3.30;;;18.50;94.90;;;;;;5132118;27;20208;-71
2021/06/21 01:53:08;;;;;;;8.48;3.33;;;18.50;94.90;;;;;;5129780;27;20196;-72
2021/06/21 01:55:40;;;;;;;10.05;3.35;;;18.50;94.90;;;;;;5132974;27;20200;-71
2021/06/21 01:58:10;;;;;;;7.68;3.20;;;18.40;94.90;;;;;;5129382;27;20204;-70
2021/06/21 02:00:39;;;;;;;9.40;3.00;;;18.40;94.90;;;;;;5127411;27;20203;-69
2021/06/21 02:03:07;;;;;;;6.90;3.17;;;18.40;94.90;;;;;;5129214;27;20587;-71
2021/06/21 02:05:37;;;;;;;10.38;3.30;;;18.40;94.90;;;;;;5129287;27;20212;-71
2021/06/21 02:08:07;;;;;;;5.15;3.53;;;18.40;94.80;;;;;;5127866;27;20691;-72
2021/06/21 02:10:34;;;;;;;8.90;3.42;;;18.40;94.70;;;;;;5131443;27;20200;-71
2021/06/21 02:13:03;;;;;;;4.60;2.97;;;18.40;94.70;;;;;;5130427;27;20728;-70
2021/06/21 02:15:30;;;;;;;7.45;3.33;;;18.40;94.60;;;;;;5130479;27;20200;-72
2021/06/21 02:17:57;;;;;;;5.30;2.75;;;18.30;94.60;;;;;;5127250;27;20200;-70
2021/06/21 02:20:25;;;;;;;5.25;2.90;;;18.30;94.50;;;;;;5129405;27;20215;-69
2021/06/21 02:22:53;;;;;;;5.30;2.88;;;18.30;94.50;;;;;;5130771;27;20208;-70
2021/06/21 02:25:20;;;;;;;6.90;2.80;;;18.30;94.50;;;;;;5127992;27;20220;-69
2021/06/21 02:27:48;;;;;;;6.45;3.00;;;18.30;94.40;;;;;;5131761;27;20714;-71
2021/06/21 02:30:17;;;;;;;6.00;2.95;;;18.30;94.50;;;;;;5126380;27;20196;-72
2021/06/21 02:32:45;;;;;;;5.93;3.00;;;18.30;94.50;;;;;;5131629;27;20209;-71
2021/06/21 02:35:13;;;;;;;5.97;2.72;;;18.30;94.60;;;;;;5129987;27;20287;-71
2021/06/21 02:37:41;;;;;;;6.95;3.00;;;18.20;94.60;;;;;;5131948;27;20208;-70
2021/06/21 02:40:11;;;;;;;6.72;3.13;;;18.20;94.60;;;;;;5128121;27;20200;-72
2021/06/21 02:42:39;;;;;;;8.27;3.30;;;18.20;95.10;;;;;;5128653;27;20201;-71
2021/06/21 02:45:07;;;;;;;9.02;3.05;;;18.20;94.80;;;;;;5126975;27;20687;-71
2021/06/21 02:47:35;;;;;;;5.35;3.38;;;18.20;94.90;;;;;;5130923;27;20200;-71
2021/06/21 02:50:03;;;;;;;7.82;3.08;;;18.20;95.00;;;;;;5128124;27;20648;-72
2021/06/21 02:52:41;;;;;;;6.75;3.22;;;18.10;95.10;;;;;;5131120;27;20215;-72
2021/06/21 02:55:16;;;;;;;7.68;3.50;;;18.10;95.20;;;;;;5122439;27;20197;-70
2021/06/21 02:57:54;;;;;;;9.27;3.67;;;18.10;95.30;;;;;;5126601;27;20203;-73
2021/06/21 03:00:21;;;;;;;10.80;3.53;;;18.10;95.40;;;;;;5126629;27;20223;-71
2021/06/21 03:02:49;;;;;;;9.07;4.03;;;18.00;95.40;;;;;;5131456;27;20232;-70
2021/06/21 03:05:18;;;;;;;7.22;3.40;;;18.00;95.50;;;;;;5128016;27;20295;-71
2021/06/21 03:07:51;;;;;;;11.98;3.80;;;18.00;95.60;;;;;;5130395;27;20204;-72
2021/06/21 03:10:20;;;;;;;6.90;4.05;;;17.90;95.70;;;;;;5129230;27;20686;-73
2021/06/21 03:12:48;;;;;;;8.18;3.80;;;17.90;95.70;;;;;;5130440;27;20196;-71
2021/06/21 03:15:19;;;;;;;10.02;3.70;;;17.90;95.80;;;;;;5128829;27;20203;-72
2021/06/21 03:17:48;;;;;;;8.40;4.07;;;17.80;95.90;;;;;;5129901;27;20212;-71
2021/06/21 03:20:15;;;;;;;9.57;3.75;;;17.80;96.00;;;;;;5126948;27;20208;-72
2021/06/21 03:22:44;;;;;;;7.60;4.05;;;17.70;96.10;;;;;;5130123;27;20188;-73
2021/06/21 03:25:12;;;;;;;10.93;4.53;;;17.70;96.30;;;;;;5128737;27;20220;-70
2021/06/21 03:27:41;;;;;;;9.13;4.25;;;17.70;96.40;;;;;;5129533;27;20201;-70
2021/06/21 03:30:11;;;;;;;11.40;4.50;;;17.60;96.50;;;;;;5126014;27;20204;-71
2021/06/21 03:32:41;;;;;;;13.10;4.82;;;17.60;96.70;;;;;;5130224;27;20205;-71
2021/06/21 03:35:10;;;;;;;9.07;4.47;;;17.60;96.90;;;;;;5128449;27;20196;-72
2021/06/21 03:37:37;;;;;;;9.02;4.47;;;17.60;97.10;;;;;;5129743;27;20193;-72
2021/06/21 03:40:06;;;;;;;8.85;4.68;;;17.60;97.20;;;;;;5127477;27;20209;-71
2021/06/21 03:42:33;;;;;;;9.02;4.22;;;17.50;97.30;;;;;;5130138;27;20200;-70
2021/06/21 03:45:01;;;;;;;9.48;4.22;;;17.50;97.50;;;;;;5125891;27;20626;-73
2021/06/21 03:47:28;;;;;;;9.23;4.32;;;17.50;97.60;;;;;;5130670;27;20802;-70
2021/06/21 03:49:55;;;;;;;8.95;4.30;;;17.40;97.70;;;;;;5128424;27;20274;-71
2021/06/21 03:52:22;;;;;;;9.57;4.45;;;17.40;97.90;;;;;;5128736;27;20667;-71
2021/06/21 03:54:49;;;;;;;9.55;4.60;;;17.30;98.00;;;;;;5125617;27;20203;-70
2021/06/21 03:57:16;;;;;;;10.00;4.03;;;17.30;98.10;;;;;;5128777;27;20259;-70
2021/06/21 03:59:43;;;;;;;8.90;3.97;;;17.30;98.30;;;;;;5125658;27;20811;-69
2021/06/21 04:02:11;;;;;;;9.98;4.00;;;17.30;98.40;;;;;;5127621;27;20236;-70
2021/06/21 04:04:38;;;;;;;9.98;4.38;;;17.30;98.50;;;;;;5127382;27;20219;-69
2021/06/21 04:07:06;;;;;;;8.77;3.70;;;17.30;98.60;;;;;;5129728;28;20323;-71
2021/06/21 04:09:33;;;;;;;10.10;4.07;;;17.30;98.70;;;;;;5128028;28;20719;-70
2021/06/21 04:12:00;;;;;;;6.65;3.70;;;17.30;98.80;;;;;;5128566;28;20196;-70
2021/06/21 04:14:26;;;;;;;6.15;3.45;;;17.20;98.80;;;;;;5130389;27;20192;-69
2021/06/21 04:16:53;;;;;;;6.03;3.22;;;17.20;98.90;;;;;;5126763;27;20200;-70
2021/06/21 04:19:21;;;;;;;8.77;3.70;;;17.20;99.10;;;;;;5125024;27;20204;-71
2021/06/21 04:21:48;;;;;;;8.02;4.10;;;17.20;99.10;;;;;;5128367;28;20698;-72
2021/06/21 04:24:15;;;;;;;5.95;3.80;;;17.20;99.20;;;;;;5128490;27;20204;-71
2021/06/21 04:26:42;;;;;;;8.00;3.72;;;17.20;99.30;;;;;;5129226;27;20308;-69
2021/06/21 04:29:09;;;;;;;11.25;4.53;;;17.20;99.30;;;;;;5134884;27;20200;-69
2021/06/21 04:31:36;;;;;;;6.82;4.20;;;17.20;99.40;;;;;;5130540;27;20212;-71
2021/06/21 04:34:02;;;;;;;9.00;4.50;;;17.20;99.50;;;;;;5134294;27;20230;-71
2021/06/21 04:36:31;;;;;;;9.95;4.70;;;17.10;99.60;;;;;;5131208;27;20656;-69
2021/06/21 04:38:57;;;;;;;7.70;4.55;;;17.10;99.70;;;;;;5132740;27;20204;-69
2021/06/21 04:41:24;;;;;;;9.43;4.45;;;17.10;99.90;;;;;;5132057;27;20249;-70
2021/06/21 04:43:51;;;;;;;8.02;4.40;;;17.10;99.90;;;;;;5133547;27;20216;-70
2021/06/21 04:46:18;;;;;;;7.07;4.75;;;17.10;99.90;;;;;;5131901;27;20639;-71
2021/06/21 04:48:48;;;;;;;11.82;4.63;;;17.10;99.90;;;;;;5134247;27;20196;-69
2021/06/21 04:51:16;;;;;;;11.50;4.18;;;17.10;99.90;;;;;;5131498;27;20250;-70
2021/06/21 04:53:47;;;;;;;7.72;3.90;;;17.10;99.90;;;;;;5133010;27;20606;-70
2021/06/21 04:56:14;;;;;;;11.65;4.70;;;17.00;99.90;;;;;;5131489;27;20207;-69
2021/06/21 04:58:41;;;;;;;11.45;4.72;;;17.00;99.90;;;;;;5133806;27;20200;-70
2021/06/21 05:01:08;;;;;;;7.95;4.75;;;17.00;99.90;;;;;;5129174;27;20614;-70
2021/06/21 05:03:36;;;;;;;9.90;4.82;;;17.00;99.90;;;;;;5129425;27;20610;-70
2021/06/21 05:06:04;;;;;;;12.07;4.47;;;17.00;99.90;;;;;;5129794;27;20559;-70
2021/06/21 05:08:31;;;;;;;15.85;4.63;;;16.90;99.90;;;;;;5131333;27;20207;-68
2021/06/21 05:10:59;;;;;;;8.48;4.25;;;16.90;99.90;;;;;;5131351;27;20206;-71
2021/06/21 05:13:26;;;;;;;13.57;4.68;;;16.90;99.90;;;;;;5128569;27;20271;-69
2021/06/21 05:15:53;;;;;;;13.57;4.90;;;16.90;99.90;;;;;;5127652;27;20197;-70
2021/06/21 05:18:20;;;;;;;8.32;3.92;;;16.80;99.90;;;;;;5125406;27;20273;-71
2021/06/21 05:20:47;;;;;;;11.18;4.50;;;16.90;99.90;;;;;;5131483;27;20196;-71
2021/06/21 05:23:14;;;;;;;14.95;4.38;;;16.90;99.90;;;;;;5129001;27;20687;-70
2021/06/21 05:25:40;;;;;;;8.20;4.43;;;16.80;99.90;;;;;;5132415;27;20218;-70
2021/06/21 05:28:09;;;;;;;10.90;4.45;;;16.80;99.90;;;;;;5128054;27;20201;-71
2021/06/21 05:30:35;;;;;;;10.60;4.40;;;16.80;99.90;;;;;;5120693;27;20200;-71
2021/06/21 05:33:02;;;;;;;12.02;4.70;;;16.70;99.90;;;;;;5122467;27;20200;-71
2021/06/21 05:35:29;;;;;;;10.48;5.07;;;16.70;99.90;;;;;;5123786;27;20644;-71
2021/06/21 05:37:56;;;;;;;10.25;5.05;;;16.60;99.90;;;;;;5121569;27;20196;-72
2021/06/21 05:40:23;;;;;;;11.30;4.32;;;16.60;99.90;;;;;;5119826;27;20209;-74
2021/06/21 05:42:50;;;;;;;11.80;5.25;;;16.60;99.90;;;;;;5119688;27;20200;-72
2021/06/21 05:45:18;;;;;;;14.68;5.90;;;16.50;99.90;;;;;;5120984;27;20228;-72
2021/06/21 05:47:45;;;;;;;13.02;4.70;;;16.40;99.90;;;;;;5122823;27;20192;-72
2021/06/21 05:50:14;;;;;;;10.50;4.63;;;16.40;99.90;;;;;;5130573;27;20201;-72
2021/06/21 05:52:40;;;;;;;14.70;5.47;;;16.30;99.90;;;;;;5132565;27;20656;-74
2021/06/21 05:55:09;;;;;;;10.73;5.50;;;16.30;99.90;;;;;;5130522;27;20188;-74
2021/06/21 05:57:37;;;;;;;11.63;5.22;;;16.30;99.90;;;;;;5131808;27;20239;-73
2021/06/21 06:00:05;;;;;;;13.95;5.30;;;16.20;99.90;;;;;;5132017;27;20218;-74
2021/06/21 06:02:35;;;;;;;13.82;5.22;;;16.20;99.90;;;;;;5129754;27;20225;-72
2021/06/21 06:05:02;;;;;;;13.07;5.20;;;16.20;99.90;;;;;;5129849;27;20213;-73
2021/06/21 06:07:28;;;;;;;9.48;5.45;;;16.20;99.90;;;;;;5129639;27;20209;-70
2021/06/21 06:09:57;;;;;;;12.07;5.65;;;16.20;99.90;;;;;;5130704;27;20204;-73
2021/06/21 06:12:24;;;;;;;11.70;4.88;;;16.20;99.90;;;;;;5130728;27;20218;-72
2021/06/21 06:14:51;;;;;;;10.13;4.78;;;16.10;99.90;;;;;;5131796;27;20204;-75
2021/06/21 06:17:18;;;;;;;12.85;5.03;;;16.10;99.90;;;;;;5128384;27;20573;-72
2021/06/21 06:19:46;;;;;;;11.55;5.25;;;16.10;99.90;;;;;;5131841;27;20196;-72
2021/06/21 06:22:13;;;;;;;11.55;4.95;;;16.10;99.90;;;;;;5130623;27;20219;-73
2021/06/21 06:24:40;;;;;;;12.57;5.13;;;16.10;99.90;;;;;;5129928;27;20208;-72
2021/06/21 06:27:08;;;;;;;13.57;5.20;;;16.10;99.90;;;;;;5131248;27;20219;-73
2021/06/21 06:29:35;;;;;;;9.50;4.57;;;16.10;99.90;;;;;;5129497;27;20208;-72
2021/06/21 06:32:05;;;;;;;9.90;4.60;;;16.10;99.90;;;;;;5130568;27;20250;-73
2021/06/21 06:34:32;;;;;;;11.32;4.93;;;16.00;99.90;;;;;;5127858;27;20700;-71
2021/06/21 06:37:01;;;;;;;10.48;4.82;;;16.00;99.90;;;;;;5130715;27;20196;-71
2021/06/21 06:39:28;;;;;;;9.77;4.82;;;16.00;99.90;;;;;;5130408;27;20748;-71
2021/06/21 06:41:55;;;;;;;12.70;4.72;;;16.00;99.90;;;;;;5130883;27;20204;-72
2021/06/21 06:44:22;;;;;;;11.85;4.95;;;16.00;99.90;;;;;;5128914;27;20201;-71
2021/06/21 06:46:49;;;;;;;10.60;5.25;;;16.10;99.90;;;;;;5129699;27;20639;-71
2021/06/21 06:49:16;;;;;;;15.15;5.45;;;16.00;99.90;;;;;;5131793;27;20204;-70
2021/06/21 06:51:44;;;;;;;10.77;4.35;;;16.10;99.90;;;;;;5128312;27;20219;-71
2021/06/21 06:54:22;;;;;;;15.52;5.15;;;16.00;99.90;;;;;;5130204;27;20196;-72
2021/06/21 06:56:58;;;;;;;14.32;5.90;;;16.10;99.90;;;;;;5128916;27;20249;-72
2021/06/21 06:59:26;;;;;;;14.18;4.97;;;16.10;99.90;;;;;;5130363;27;20214;-70
2021/06/21 07:01:53;;;;;;;15.55;5.20;;;16.10;99.90;;;;;;5127494;27;20208;-72
2021/06/21 07:04:20;;;;;;;13.93;4.78;;;16.10;99.90;;;;;;5129150;27;20212;-71
2021/06/21 07:06:47;;;;;;;9.00;4.40;;;16.10;99.90;;;;;;5130155;27;20220;-70
2021/06/21 07:09:16;;;;;;;9.77;4.32;;;16.20;99.90;;;;;;5130761;27;20216;-72
2021/06/21 07:11:43;;;;;;;12.25;5.10;;;16.20;99.90;;;;;;5128520;27;20211;-72
2021/06/21 07:14:10;;;;;;;16.08;4.95;;;16.20;99.90;;;;;;5129624;27;20212;-71
2021/06/21 07:16:37;;;;;;;14.05;5.07;;;16.20;99.90;;;;;;5130954;27;20200;-71
2021/06/21 07:19:04;;;;;;;13.88;4.47;;;16.30;99.90;;;;;;5129888;27;20213;-72
2021/06/21 07:21:32;;;;;;;10.13;4.03;;;16.30;99.90;;;;;;5125712;27;20645;-70
2021/06/21 07:23:59;;;;;;;18.90;4.70;;;16.30;99.90;;;;;;5129427;27;20223;-70
2021/06/21 07:26:28;;;;;;;8.25;4.50;;;16.30;99.90;;;;;;5130749;27;20676;-71
2021/06/21 07:28:54;;;;;;;11.82;4.07;;;16.30;99.90;;;;;;5125510;27;20659;-70
2021/06/21 07:31:21;;;;;;;11.30;4.50;;;16.30;99.90;;;;;;5125231;27;20679;-70
2021/06/21 07:33:48;;;;;;;10.40;4.32;;;16.40;99.90;;;;;;5130098;27;20200;-70
2021/06/21 07:36:15;;;;;;;13.52;4.30;;;16.30;99.90;;;;;;5129429;27;20271;-71
2021/06/21 07:38:43;;;;;;;9.32;4.25;;;16.40;99.90;;;;;;5129876;27;20200;-73
2021/06/21 07:41:10;;;;;;;8.27;3.90;;;16.40;99.90;;;;;;5129546;27;20200;-72
2021/06/21 07:43:39;;;;;;;13.75;4.65;;;16.40;99.90;;;;;;5130303;27;20204;-71
2021/06/21 07:46:06;;;;;;;8.82;3.97;;;16.40;99.90;;;;;;5130175;27;20672;-70
2021/06/21 07:48:35;;;;;;;15.13;4.30;;;16.40;99.90;;;;;;5128969;27;20204;-71
2021/06/21 07:51:03;;;;;;;9.45;4.22;;;16.40;99.90;;;;;;5128825;27;20667;-70
2021/06/21 07:53:30;;;;;;;6.38;4.13;;;16.50;99.90;;;;;;5129373;27;20608;-72
2021/06/21 07:55:57;;;;;;;10.27;4.30;;;16.40;99.90;;;;;;5130226;27;20208;-70
2021/06/21 07:58:24;;;;;;;7.72;4.25;;;16.50;99.90;;;;;;5126943;27;20205;-71
2021/06/21 08:00:52;;;;;;;7.47;4.13;;;16.50;99.90;;;;;;5130298;27;20192;-74
2021/06/21 08:03:19;;;;;;;7.75;3.72;;;16.50;99.90;;;;;;5129932;27;20232;-71
2021/06/21 08:05:49;;;;;;;6.03;3.78;;;16.50;99.90;;;;;;5130093;27;20215;-73
2021/06/21 08:08:16;;;;;;;8.98;4.13;;;16.50;99.90;;;;;;5130391;27;20279;-71
2021/06/21 08:10:43;;;;;;;6.25;3.80;;;16.50;99.90;;;;;;5129360;28;20211;-73
2021/06/21 08:13:10;;;;;;;7.63;3.80;;;16.60;99.90;;;;;;5129550;27;20265;-72
2021/06/21 08:15:38;;;;;;;9.57;3.92;;;16.50;99.90;;;;;;5130073;27;20270;-72
2021/06/21 08:18:07;;;;;;;8.80;3.78;;;16.60;99.90;;;;;;5127285;28;20281;-71
2021/06/21 08:20:34;;;;;;;12.45;4.90;;;16.60;99.90;;;;;;5129112;27;20205;-73
2021/06/21 08:23:01;;;;;;;9.38;3.78;;;16.60;99.90;;;;;;5130294;27;20189;-72
2021/06/21 08:25:28;;;;;;;8.85;3.90;;;16.60;99.90;;;;;;5128466;27;20262;-72
2021/06/21 08:27:55;;;;;;;8.55;3.53;;;16.60;99.90;;;;;;5129912;28;20675;-72
2021/06/21 08:30:22;;;;;;;7.20;3.55;;;16.60;99.90;;;;;;5129962;27;20200;-72
2021/06/21 08:32:49;;;;;;;11.38;3.20;;;16.60;99.90;;;;;;5128930;27;20564;-71
2021/06/21 08:35:17;;;;;;;8.48;3.60;;;16.60;99.90;;;;;;5126956;27;20204;-73
2021/06/21 08:37:44;;;;;;;6.88;3.22;;;16.60;99.90;;;;;;5130016;27;20208;-70
2021/06/21 08:40:13;;;;;;;5.85;2.90;;;16.60;99.90;;;;;;5126924;27;20204;-71
2021/06/21 08:42:40;;;;;;;13.07;3.95;;;16.60;99.90;;;;;;5125004;27;20200;-70
2021/06/21 08:45:09;;;;;;;8.10;3.75;;;16.70;99.90;;;;;;5126235;28;20197;-70
2021/06/21 08:47:38;;;;;;;6.60;2.92;;;16.70;99.90;;;;;;5126709;28;20323;-73
2021/06/21 08:50:08;;;;;;;4.32;2.95;;;16.60;99.90;;;;;;5125659;28;20664;-72
2021/06/21 08:52:36;;;;;;;4.97;2.70;;;16.70;99.90;;;;;;5127529;27;20719;-72
2021/06/21 08:55:06;;;;;;;11.93;3.08;;;16.70;99.90;;;;;;5129582;27;20676;-74
2021/06/21 08:57:36;;;;;;;5.75;2.97;;;16.70;99.90;;;;;;5122969;27;20225;-72
2021/06/21 09:00:04;;;;;;;14.90;3.58;;;16.70;99.90;;;;;;5127105;27;20199;-72
2021/06/21 09:02:31;;;;;;;7.25;2.60;;;16.70;99.90;;;;;;5126412;28;20235;-73
2021/06/21 09:04:58;;;;;;;7.25;3.08;;;16.70;99.90;;;;;;5130048;27;20279;-72
2021/06/21 09:07:26;;;;;;;8.48;2.92;;;16.70;99.90;;;;;;5127171;27;20216;-74
2021/06/21 09:09:56;;;;;;;11.40;3.10;;;16.70;99.90;;;;;;5128203;27;20200;-73
2021/06/21 09:12:26;;;;;;;8.15;2.80;;;16.70;99.90;;;;;;5129250;27;20276;-72
2021/06/21 09:14:55;;;;;;;15.13;3.55;;;16.70;99.90;;;;;;5132256;27;20660;-73
2021/06/21 09:17:24;;;;;;;11.00;3.78;;;16.70;99.90;;;;;;5128176;27;20224;-71
2021/06/21 09:19:56;;;;;;;15.20;3.50;;;16.60;99.90;;;;;;5133644;27;20697;-73
2021/06/21 09:22:30;;;;;;;16.27;3.05;;;16.60;99.90;;;;;;5131011;27;20249;-73
2021/06/21 09:25:00;;;;;;;7.82;3.17;;;16.60;99.90;;;;;;5133327;27;20683;-74
2021/06/21 09:27:27;;;;;;;9.73;3.47;;;16.60;99.90;;;;;;5130843;27;20212;-74
2021/06/21 09:29:54;;;;;;;16.58;3.20;;;16.60;99.90;;;;;;5129775;27;20223;-72
2021/06/21 09:32:21;;;;;;;10.43;2.95;;;16.60;99.90;;;;;;5131127;27;20215;-75
2021/06/21 09:34:48;;;;;;;10.68;3.60;;;16.60;99.90;;;;;;5131709;27;20635;-73
2021/06/21 09:37:16;;;;;;;11.85;3.53;;;16.60;99.90;;;;;;5131213;27;20207;-73
2021/06/21 09:39:44;;;;;;;9.13;3.60;;;16.60;99.90;;;;;;5133105;27;20196;-70
2021/06/21 09:42:16;;;;;;;10.02;3.30;;;16.60;99.90;;;;;;5131233;27;20204;-72
2021/06/21 09:44:46;;;;;;;11.02;3.00;;;16.60;99.90;;;;;;5127295;27;20574;-72
2021/06/21 09:47:21;;;;;;;12.85;3.30;;;16.60;99.90;;;;;;5124813;27;20219;-74
2021/06/21 09:50:04;;;;;;;7.78;3.35;;;16.60;99.90;;;;;;5124056;27;20212;-76
2021/06/21 09:52:35;;;;;;;11.55;3.50;;;16.60;99.90;;;;;;5128643;27;20206;-76
2021/06/21 09:55:11;;;;;;;13.95;4.15;;;16.60;99.90;;;;;;5131182;27;20215;-75
2021/06/21 09:57:39;;;;;;;11.07;3.55;;;16.60;99.90;;;;;;5131056;27;20211;-75
2021/06/21 10:00:08;;;;;;;10.27;3.42;;;16.60;99.90;;;;;;5132580;27;20205;-71
2021/06/21 10:02:36;;;;;;;12.50;3.08;;;16.60;99.90;;;;;;5126555;27;20236;-75
2021/06/21 10:05:04;;;;;;;12.65;3.17;;;16.70;99.90;;;;;;5125309;27;20215;-72
2021/06/21 10:07:33;;;;;;;10.80;3.28;;;16.70;99.90;;;;;;5130576;27;20230;-70
2021/06/21 10:10:02;;;;;;;18.17;3.97;;;16.70;99.90;;;;;;5129185;27;20547;-71
2021/06/21 10:12:29;;;;;;;9.32;2.92;;;16.80;99.90;;;;;;5129584;27;20302;-73
2021/06/21 10:14:58;;;;;;;8.35;3.10;;;16.80;99.90;;;;;;5131170;27;20211;-76
2021/06/21 10:17:25;;;;;;;10.07;3.20;;;16.80;99.90;;;;;;5130042;27;20566;-71
2021/06/21 10:19:53;;;;;;;10.57;3.25;;;16.80;99.90;;;;;;5131140;27;20215;-73
2021/06/21 10:22:22;;;;;;;10.88;3.50;;;16.80;99.90;;;;;;5127878;27;20200;-72
2021/06/21 10:24:50;;;;;;;11.40;2.90;;;16.90;99.90;;;;;;5129644;27;20200;-70
2021/06/21 10:27:19;;;;;;;9.50;3.20;;;16.90;99.90;;;;;;5127564;27;20208;-72
2021/06/21 10:29:47;;;;;;;12.55;3.58;;;16.80;99.90;;;;;;5128509;27;21018;-70
2021/06/21 10:32:16;;;;;;;12.80;3.08;;;16.90;99.90;;;;;;5126355;27;20216;-71
2021/06/21 10:34:45;;;;;;;10.65;3.15;;;16.80;99.90;;;;;;5131913;27;20209;-70
2021/06/21 10:37:17;;;;;;;14.27;4.28;;;16.90;99.90;;;;;;5129191;27;20185;-70
2021/06/21 10:39:49;;;;;;;9.00;3.42;;;16.90;99.90;;;;;;5128732;27;20233;-70
2021/06/21 10:42:19;;;;;;;8.38;3.63;;;16.90;99.90;;;;;;5127879;27;20208;-71
2021/06/21 10:44:49;;;;;;;7.18;2.90;;;16.80;99.90;;;;;;5129604;27;20276;-72
2021/06/21 10:47:39;;;;;;;12.85;3.50;;;16.90;99.90;;;;;;5129351;27;20227;-72
2021/06/21 10:50:12;;;;;;;12.60;3.38;;;16.80;99.90;;;;;;5130169;27;20264;-74
2021/06/21 10:52:46;;;;;;;9.50;3.63;;;16.90;99.90;;;;;;5128472;27;20193;-72
2021/06/21 10:55:35;;;;;;;7.28;2.83;;;16.90;99.90;;;;;;5131604;27;20208;-72
2021/06/21 10:58:04;;;;;;;8.07;2.92;;;16.90;99.90;;;;;;5126391;27;20201;-72
2021/06/21 11:00:33;;;;;;;9.57;2.70;;;16.90;99.90;;;;;;5128246;27;20235;-73
2021/06/21 11:03:02;;;;;;;9.95;2.40;;;16.90;99.90;;;;;;5124059;27;20658;-73
2021/06/21 11:05:34;;;;;;;11.15;2.63;;;16.90;99.90;;;;;;5130881;27;20212;-71
2021/06/21 11:08:15;;;;;;;8.93;2.65;;;16.90;99.90;;;;;;5129500;27;20212;-71
2021/06/21 11:10:43;;;;;;;4.50;2.40;;;16.90;99.90;;;;;;5131217;27;20199;-72
2021/06/21 11:13:40;;;;;;;6.95;2.70;;;16.90;99.90;;;;;;5129004;27;20270;-71
2021/06/21 11:16:24;;;;;;;6.63;2.30;;;16.90;99.90;;;;;;5129055;27;20204;-70
2021/06/21 11:19:31;;;;;;;13.27;3.13;;;16.90;99.90;;;;;;5128278;27;20196;-70
2021/06/21 11:22:01;;;;;;;13.60;2.67;;;16.90;99.90;;;;;;5126696;27;20622;-71
2021/06/21 11:24:47;;;;;;;10.95;3.17;;;17.00;99.90;;;;;;5129663;27;20196;-72
2021/06/21 11:27:15;;;;;;;6.97;2.17;;;17.00;99.90;;;;;;5129409;27;20577;-72
2021/06/21 11:29:44;;;;;;;8.05;3.13;;;17.00;99.90;;;;;;5130300;27;20196;-71
2021/06/21 11:32:12;;;;;;;12.93;3.10;;;17.00;99.90;;;;;;5128323;27;20211;-71
2021/06/21 11:34:50;;;;;;;7.70;2.67;;;17.10;99.90;;;;;;5125552;27;20204;-72
2021/06/21 11:37:38;;;;;;;7.85;2.95;;;17.10;99.90;;;;;;5128452;27;20185;-70
2021/06/21 11:40:30;;;;;;;9.25;2.85;;;17.10;99.90;;;;;;5127213;27;20212;-72
2021/06/21 11:43:15;;;;;;;13.85;3.58;;;17.20;99.90;;;;;;5121882;27;20197;-71
2021/06/21 11:45:54;;;;;;;13.00;3.25;;;17.20;99.90;;;;;;5128260;27;20204;-74
2021/06/21 11:48:26;;;;;;;8.98;3.25;;;17.30;99.90;;;;;;5123188;27;20216;-71
2021/06/21 11:50:56;;;;;;;10.65;2.97;;;17.40;99.90;;;;;;5150705;27;20208;-71
2021/06/21 11:53:25;;;;;;;8.88;3.28;;;17.50;99.90;;;;;;5119362;27;20197;-72
2021/06/21 11:55:53;;;;;;;9.15;2.90;;;17.50;99.90;;;;;;5127704;27;20227;-72
2021/06/21 11:58:27;;;;;;;5.65;2.38;;;17.60;99.90;;;;;;5127202;27;20198;-71
2021/06/21 12:00:54;;;;;;;9.98;2.88;;;17.60;99.90;;;;;;5122064;27;20208;-73
2021/06/21 12:03:30;;;;;;;10.25;3.53;;;17.60;99.90;;;;;;5125988;27;20235;-71
2021/06/21 12:06:00;;;;;;;7.65;3.25;;;17.60;99.90;;;;;;5125007;28;20211;-70
2021/06/21 12:08:27;;;;;;;8.95;2.75;;;17.50;99.90;;;;;;5124858;28;20216;-70
2021/06/21 12:10:54;;;;;;;7.05;2.70;;;17.60;99.90;;;;;;5130118;27;20200;-71
2021/06/21 12:13:22;;;;;;;10.05;3.60;;;17.60;99.90;;;;;;5126102;27;20207;-72
2021/06/21 12:15:49;;;;;;;11.93;3.70;;;17.60;99.90;;;;;;5127360;27;20570;-69
2021/06/21 12:18:26;;;;;;;8.73;3.60;;;17.60;99.90;;;;;;5128311;27;20199;-70
2021/06/21 12:20:53;;;;;;;11.70;4.22;;;17.70;99.90;;;;;;5123290;28;20200;-70
2021/06/21 12:23:24;;;;;;;9.88;3.08;;;17.70;99.90;;;;;;5127185;27;20197;-71
2021/06/21 12:25:51;;;;;;;8.63;2.90;;;17.70;99.90;;;;;;5127736;28;20212;-72
2021/06/21 12:28:20;;;;;;;5.55;2.60;;;17.70;99.90;;;;;;5126056;27;20216;-70
2021/06/21 12:30:49;;;;;;;9.18;2.97;;;17.70;99.90;;;;;;5123830;27;20210;-70
2021/06/21 12:33:32;;;;;;;8.73;3.00;;;17.80;99.90;;;;;;5123826;28;20211;-72
2021/06/21 12:36:07;;;;;;;15.63;3.60;;;17.80;99.90;;;;;;5129360;28;20627;-71
2021/06/21 12:38:36;;;;;;;8.60;3.42;;;17.80;99.90;;;;;;5125519;27;20199;-69
2021/06/21 12:41:15;;;;;;;8.57;2.90;;;17.80;99.90;;;;;;5160779;27;20201;-70
2021/06/21 12:43:51;;;;;;;9.07;2.80;;;17.90;99.90;;;;;;5126597;27;20243;-70
2021/06/21 12:46:20;;;;;;;7.18;3.17;;;17.90;99.90;;;;;;5125884;27;20667;-72
2021/06/21 12:48:47;;;;;;;13.02;3.22;;;17.90;99.90;;;;;;5131054;27;20583;-69
2021/06/21 12:51:14;;;;;;;7.93;3.58;;;18.00;99.90;;;;;;5133948;27;20197;-70
2021/06/21 12:53:48;;;;;;;6.93;3.20;;;18.00;99.90;;;;;;5128904;27;20965;-71